Terminal Aerodrome Forecast
Issued by NWS Riverton, WY

Home | Current Version | Previous Version | Text Only | Print | Product List | Glossary On
Versions: 1 2 3 4 5 6 7 8 9 10 11 12
000
FTUS45 KRIW 260500
TAFRIW
TAF
KRIW 260527Z 2606/2706 32010KT P6SM SKC
     FM261700 03007KT P6SM SCT200
     FM262300 35010KT P6SM FEW120 SCT200
     FM270300 30007KT P6SM FEW200=

USA.gov is the U.S. government's official web portal to all federal, state and local government web resources and services.